Portada
METAR-TAF:

METAR-TAF

Aeroports :

Ürümqi, Xina

latitud: 43-54N, longitud: 087-28E, altitud: 654 m

Observació

L'informe es va fer fa 33 minuts, a les 03:00 UTC
Vent 4 kt del Nord, variant entre Nord i Nord-Est
Temperatura 14°C
Humitat 41%
Pressió 1024 hPa
Visibilitat: 8000 m

METAR: ZWWW 150300Z 01002MPS 350V050 8000 NSC 14/01 Q1024 NOSIG

Hora: 09:33 (03:33 UTC)

Pronòstic

L'informe es va fer fa 6 hores i 29 minuts, a les 21:04 UTC
Pronòstic vàlid del 15 a les 00 UTC al 15 a les 24 UTC
Vent 8 kt del Sud
Visibilitat 10 km o més
sense núvols per sota de 1500 mi sense presència de cumulonimbus.
Evolucionant progressivament
l' 15 a les 03 UTC al 15 a les 04 UTC
Vent 8 kt del Nord
Evolucionant progressivament
l' 15 a les 13 UTC al 15 a les 14 UTC
Vent 8 kt del Sud

TAF: ZWWW 142104Z 1500/1524 18004MPS CAVOK TX21/1509Z TN10/1523Z BECMG 1503/1504 36004MPS BECMG 1513/1514 18004MPS

Observacions i pronòstics meteorològics de més de 4000 aeroports (METAR i TAF).

Les estacions disponibles són els punts grocs i vermells al mapa.

Posi el ratolí al punt desitjat per veure el nom de l'estació.

Feu clic per veure les observacions i els pronòstics meteorològics.

Per canviar el mapa: feu clic els botons verds amb una creu de color negre per apropar; al botó verd amb un guió per allunyar la imatge; o en les fletxes verdes per a mapes adjacents.


METAR-TAF: